Time;durP1;ratioP1;P1;durP2;ratioP2;P2;SDS_P1;SDS_P2;PMS_P1;PMS_P2;Temp;Humidity;BMP_temperature;BMP_pressure;BME280_temperature;BME280_humidity;BME280_pressure;Samples;Min_cycle;Max_cycle;Signal;HPM_P1;HPM_P2
2023/08/29 00:00:35;;;;;;;6.20;5.18;;;;;;;13.05;100.00;101195.13;5047398;28;20025;-50
2023/08/29 00:03:03;;;;;;;6.22;5.43;;;;;;;13.00;100.00;101196.47;5045093;28;20025;-50
2023/08/29 00:05:28;;;;;;;6.43;5.20;;;;;;;12.97;100.00;101194.91;5048352;28;20013;-51
2023/08/29 00:07:54;;;;;;;5.93;5.30;;;;;;;12.94;100.00;101196.00;5045109;28;20029;-51
2023/08/29 00:10:19;;;;;;;5.60;4.82;;;;;;;12.88;100.00;101198.31;5044019;28;20180;-51
2023/08/29 00:12:44;;;;;;;6.50;5.78;;;;;;;12.86;100.00;101195.78;5052663;28;20017;-51
2023/08/29 00:15:10;;;;;;;6.03;5.10;;;;;;;12.83;100.00;101196.03;5044986;28;20033;-51
2023/08/29 00:17:35;;;;;;;7.25;5.10;;;;;;;12.81;100.00;101197.97;5051361;28;20380;-50
2023/08/29 00:20:02;;;;;;;6.18;5.43;;;;;;;12.77;100.00;101194.72;5040605;28;20092;-52
2023/08/29 00:22:27;;;;;;;7.57;5.30;;;;;;;12.76;100.00;101193.00;5046362;28;20048;-52
2023/08/29 00:24:53;;;;;;;5.60;5.10;;;;;;;12.71;100.00;101186.38;5051762;28;20056;-53
2023/08/29 00:27:21;;;;;;;5.57;5.05;;;;;;;12.69;100.00;101178.50;5056704;28;20029;-51
2023/08/29 00:29:47;;;;;;;7.75;5.05;;;;;;;12.67;100.00;101168.91;5046132;28;20025;-52
2023/08/29 00:32:12;;;;;;;6.40;5.47;;;;;;;12.66;100.00;101178.72;5042090;28;20033;-54
2023/08/29 00:34:37;;;;;;;7.70;5.40;;;;;;;12.59;100.00;101182.88;5038847;28;20029;-52
2023/08/29 00:37:03;;;;;;;6.75;5.50;;;;;;;12.58;100.00;101178.50;5044471;28;20124;-51
2023/08/29 00:39:29;;;;;;;7.03;6.22;;;;;;;12.52;100.00;101176.31;5049486;28;20087;-50
2023/08/29 00:41:54;;;;;;;5.57;5.07;;;;;;;12.51;100.00;101178.13;5045465;28;20075;-52
2023/08/29 00:44:20;;;;;;;6.28;5.78;;;;;;;12.49;100.00;101177.41;5048002;28;20067;-51
2023/08/29 00:46:45;;;;;;;6.60;5.82;;;;;;;12.46;100.00;101177.66;5053964;28;20060;-51
2023/08/29 00:49:14;;;;;;;6.28;5.68;;;;;;;12.48;100.00;101178.38;5045103;28;20021;-50
2023/08/29 00:51:40;;;;;;;6.22;5.63;;;;;;;12.47;100.00;101168.69;5047473;28;20043;-50
2023/08/29 00:54:07;;;;;;;7.90;6.13;;;;;;;12.41;100.00;101169.19;5049622;28;20475;-51
2023/08/29 00:56:33;;;;;;;8.23;5.97;;;;;;;12.42;100.00;101181.50;5048388;28;20021;-51
2023/08/29 00:58:59;;;;;;;10.48;6.50;;;;;;;12.38;100.00;101175.59;5052324;28;20147;-50
2023/08/29 01:01:25;;;;;;;10.05;6.78;;;;;;;12.36;100.00;101174.03;5050911;28;20029;-50
2023/08/29 01:03:50;;;;;;;8.27;6.15;;;;;;;12.34;100.00;101176.81;5059304;28;20039;-51
2023/08/29 01:06:16;;;;;;;6.70;6.20;;;;;;;12.33;100.00;101168.94;5046220;28;20024;-50
2023/08/29 01:08:43;;;;;;;6.63;6.00;;;;;;;12.26;100.00;101168.56;5052463;28;20021;-53
2023/08/29 01:11:50;;;;;;;7.35;6.15;;;;;;;12.29;100.00;101168.34;5057184;28;20025;-50
2023/08/29 01:14:20;;;;;;;7.88;6.72;;;;;;;12.23;100.00;101168.81;5052261;28;20041;-51
2023/08/29 01:17:38;;;;;;;7.00;6.05;;;;;;;12.26;100.00;101171.25;5052999;28;20078;-52
2023/08/29 01:20:05;;;;;;;7.40;6.13;;;;;;;12.17;100.00;101170.16;5055393;28;20080;-51
2023/08/29 01:22:48;;;;;;;7.10;6.40;;;;;;;12.13;100.00;101170.50;5055417;28;20028;-51
2023/08/29 01:25:28;;;;;;;6.72;6.13;;;;;;;12.14;100.00;101175.72;5048293;28;20128;-51
2023/08/29 01:27:54;;;;;;;6.80;6.20;;;;;;;12.07;100.00;101171.81;5052683;28;20159;-50
2023/08/29 01:30:20;;;;;;;7.40;6.47;;;;;;;12.06;100.00;101175.47;5055883;28;20017;-51
2023/08/29 01:32:46;;;;;;;9.80;6.75;;;;;;;12.06;100.00;101180.78;5045887;28;20489;-52
2023/08/29 01:35:13;;;;;;;6.80;5.78;;;;;;;12.02;100.00;101179.31;5054163;28;20055;-50
2023/08/29 01:37:39;;;;;;;6.80;6.18;;;;;;;11.98;100.00;101173.38;5050853;28;20029;-51
2023/08/29 01:40:06;;;;;;;7.28;6.68;;;;;;;11.95;100.00;101170.13;5049919;28;20022;-51
2023/08/29 01:42:31;;;;;;;10.13;6.68;;;;;;;11.92;100.00;101173.00;5045974;28;20128;-50
2023/08/29 01:44:56;;;;;;;6.88;6.18;;;;;;;11.91;100.00;101180.16;5049882;28;20107;-51
2023/08/29 01:47:22;;;;;;;7.45;6.18;;;;;;;11.89;100.00;101178.53;5044536;28;20032;-51
2023/08/29 01:49:48;;;;;;;6.80;6.20;;;;;;;11.88;100.00;101175.03;5050179;28;20029;-51
2023/08/29 01:52:14;;;;;;;6.32;5.72;;;;;;;11.85;100.00;101178.75;5043540;28;20037;-49
2023/08/29 01:54:39;;;;;;;6.55;5.88;;;;;;;11.88;100.00;101176.84;5054374;28;20021;-51
2023/08/29 01:57:06;;;;;;;6.93;6.22;;;;;;;11.81;100.00;101182.63;5050674;28;20031;-51
2023/08/29 01:59:33;;;;;;;7.38;6.45;;;;;;;11.75;100.00;101182.25;5047419;28;20477;-51
2023/08/29 02:02:00;;;;;;;6.97;6.28;;;;;;;11.74;100.00;101188.53;5047149;28;20414;-49
2023/08/29 02:04:25;;;;;;;6.78;6.18;;;;;;;11.70;100.00;101185.25;5047608;28;20535;-51
2023/08/29 02:06:51;;;;;;;6.97;6.32;;;;;;;11.68;100.00;101189.84;5047954;28;20116;-52
2023/08/29 02:09:16;;;;;;;8.82;6.22;;;;;;;11.64;100.00;101183.94;5052772;28;20090;-50
2023/08/29 02:11:41;;;;;;;7.32;6.43;;;;;;;11.69;100.00;101193.34;5047778;28;20029;-50
2023/08/29 02:14:07;;;;;;;9.90;6.75;;;;;;;11.64;100.00;101191.91;5049087;28;20040;-50
2023/08/29 02:16:32;;;;;;;7.00;6.30;;;;;;;11.63;100.00;101187.53;5047151;28;20487;-50
2023/08/29 02:18:58;;;;;;;6.88;6.28;;;;;;;11.64;100.00;101185.72;5050522;28;20434;-49
2023/08/29 02:21:23;;;;;;;8.32;6.47;;;;;;;11.61;100.00;101188.63;5048502;28;20439;-49
2023/08/29 02:23:48;;;;;;;7.15;6.32;;;;;;;11.59;100.00;101198.53;5050253;28;20104;-50
2023/08/29 02:26:13;;;;;;;7.57;6.55;;;;;;;11.54;100.00;101206.00;5058702;28;20118;-50
2023/08/29 02:28:39;;;;;;;8.50;6.88;;;;;;;11.55;100.00;101202.38;5047756;28;20463;-50
2023/08/29 02:31:06;;;;;;;7.20;6.50;;;;;;;11.54;100.00;101206.88;5054220;28;20061;-50
2023/08/29 02:33:34;;;;;;;7.78;6.93;;;;;;;11.52;100.00;101207.94;5045677;28;20017;-50
2023/08/29 02:35:59;;;;;;;7.55;6.65;;;;;;;11.51;100.00;101209.75;5047424;28;20033;-51
2023/08/29 02:38:24;;;;;;;7.20;6.50;;;;;;;11.50;100.00;101212.53;5046751;28;20479;-51
2023/08/29 02:40:50;;;;;;;7.68;6.90;;;;;;;11.48;100.00;101216.13;5046037;28;20037;-51
2023/08/29 02:43:15;;;;;;;8.63;6.88;;;;;;;11.47;100.00;101224.22;5047122;28;20550;-49
2023/08/29 02:45:40;;;;;;;8.40;6.32;;;;;;;11.43;100.00;101226.28;5047366;28;20379;-50
2023/08/29 02:48:06;;;;;;;8.88;6.65;;;;;;;11.42;100.00;101226.38;5045655;28;20987;-49
2023/08/29 02:50:33;;;;;;;7.55;6.75;;;;;;;11.40;100.00;101230.97;5046162;28;20033;-49
2023/08/29 02:52:58;;;;;;;7.55;6.40;;;;;;;11.40;100.00;101228.31;5055880;28;20021;-50
2023/08/29 02:55:23;;;;;;;6.75;6.05;;;;;;;11.40;100.00;101223.84;5043893;28;20032;-51
2023/08/29 02:57:49;;;;;;;6.70;6.10;;;;;;;11.35;100.00;101220.66;5053612;28;20126;-49
2023/08/29 03:00:15;;;;;;;8.30;6.70;;;;;;;11.35;100.00;101215.34;5048890;28;20029;-51
2023/08/29 03:02:40;;;;;;;7.45;6.75;;;;;;;11.33;100.00;101213.78;5053823;28;20017;-53
2023/08/29 03:05:06;;;;;;;7.45;6.43;;;;;;;11.32;100.00;101212.91;5047737;28;20044;-50
2023/08/29 03:07:31;;;;;;;8.35;6.90;;;;;;;11.30;100.00;101215.69;5051566;28;20095;-52
2023/08/29 03:09:56;;;;;;;8.82;6.70;;;;;;;11.29;100.00;101221.13;5044792;28;20025;-51
2023/08/29 03:12:22;;;;;;;7.75;6.88;;;;;;;11.29;100.00;101223.78;5052555;28;20025;-50
2023/08/29 03:14:53;;;;;;;9.57;6.43;;;;;;;11.28;100.00;101219.44;5049969;28;20100;-50
2023/08/29 03:17:18;;;;;;;8.82;6.35;;;;;;;11.24;100.00;101218.81;5051894;28;20025;-51
2023/08/29 03:19:45;;;;;;;9.43;7.30;;;;;;;11.23;100.00;101221.59;5057513;28;20090;-50
2023/08/29 03:22:11;;;;;;;7.53;6.60;;;;;;;11.24;100.00;101220.59;5043171;28;20021;-49
2023/08/29 03:24:36;;;;;;;8.55;6.88;;;;;;;11.23;100.00;101224.25;5051624;28;20410;-52
2023/08/29 03:27:02;;;;;;;8.70;7.55;;;;;;;11.19;100.00;101215.66;5050840;28;20036;-50
2023/08/29 03:29:28;;;;;;;8.00;7.18;;;;;;;11.22;100.00;101215.41;5042431;28;20456;-51
2023/08/29 03:31:53;;;;;;;8.75;7.45;;;;;;;11.19;100.00;101213.00;5046280;28;20151;-51
2023/08/29 03:34:18;;;;;;;8.45;7.13;;;;;;;11.19;100.00;101220.09;5054378;28;20067;-53
2023/08/29 03:36:44;;;;;;;8.30;7.40;;;;;;;11.16;100.00;101207.91;5049175;28;20025;-51
2023/08/29 03:39:09;;;;;;;7.90;7.10;;;;;;;11.14;100.00;101207.16;5050664;28;20028;-52
2023/08/29 03:41:35;;;;;;;8.77;7.32;;;;;;;11.15;100.00;101205.34;5041721;28;20437;-51
2023/08/29 03:44:01;;;;;;;8.77;7.07;;;;;;;11.13;100.00;101202.81;5044241;28;20041;-51
2023/08/29 03:46:26;;;;;;;8.32;7.25;;;;;;;11.11;100.00;101196.75;5051334;28;20032;-51
2023/08/29 03:48:51;;;;;;;8.10;6.57;;;;;;;11.14;100.00;101195.66;5053460;28;20024;-51
2023/08/29 03:51:17;;;;;;;6.85;6.15;;;;;;;11.14;100.00;101188.56;5048171;28;20040;-50
2023/08/29 03:53:42;;;;;;;7.05;6.45;;;;;;;11.12;100.00;101182.47;5051543;28;20494;-50
2023/08/29 03:56:09;;;;;;;7.95;7.15;;;;;;;11.05;100.00;101165.28;5048913;28;20029;-50
2023/08/29 03:58:35;;;;;;;9.88;7.70;;;;;;;11.11;100.00;101170.16;5049547;28;20467;-50
2023/08/29 04:01:03;;;;;;;10.98;7.97;;;;;;;11.09;100.00;101182.69;5045751;28;20045;-51
2023/08/29 04:03:30;;;;;;;8.75;7.10;;;;;;;11.08;100.00;101175.72;5042135;28;20025;-54
2023/08/29 04:05:56;;;;;;;8.52;7.05;;;;;;;11.07;100.00;101179.31;5047631;28;20108;-51
2023/08/29 04:08:21;;;;;;;9.77;8.30;;;;;;;11.07;100.00;101172.22;5044295;28;20250;-51
2023/08/29 04:10:47;;;;;;;8.80;7.80;;;;;;;11.05;100.00;101179.44;5044496;28;20075;-51
2023/08/29 04:13:12;;;;;;;10.10;8.40;;;;;;;11.03;100.00;101173.38;5043920;28;20025;-51
2023/08/29 04:15:37;;;;;;;8.75;7.95;;;;;;;11.00;100.00;101167.44;5049593;28;20163;-54
2023/08/29 04:18:03;;;;;;;8.48;7.68;;;;;;;11.01;100.00;101162.03;5044279;28;20040;-53
2023/08/29 04:20:30;;;;;;;10.77;8.13;;;;;;;10.94;100.00;101163.41;5050977;28;20025;-52
2023/08/29 04:22:57;;;;;;;8.85;7.95;;;;;;;10.98;100.00;101164.06;5045732;28;20017;-51
2023/08/29 04:25:26;;;;;;;8.95;8.05;;;;;;;10.98;100.00;101161.41;5047756;28;20055;-53
2023/08/29 04:27:51;;;;;;;8.10;7.30;;;;;;;10.99;100.00;101173.72;5047481;28;20033;-51
2023/08/29 04:30:17;;;;;;;9.43;7.28;;;;;;;10.93;100.00;101167.88;5047506;28;20364;-54
2023/08/29 04:32:42;;;;;;;10.68;7.47;;;;;;;10.92;100.00;101160.03;5048507;28;20090;-50
2023/08/29 04:35:08;;;;;;;8.35;7.40;;;;;;;10.95;100.00;101158.97;5047924;28;20127;-50
2023/08/29 04:37:34;;;;;;;8.15;7.38;;;;;;;10.94;100.00;101158.09;5048266;28;20094;-52
2023/08/29 04:40:00;;;;;;;9.40;7.07;;;;;;;10.91;100.00;101159.19;5043645;28;20120;-51
2023/08/29 04:42:26;;;;;;;9.48;7.03;;;;;;;10.89;100.00;101165.56;5044458;28;20128;-53
2023/08/29 04:44:53;;;;;;;11.18;7.65;;;;;;;10.88;100.00;101162.06;5046280;28;20028;-53
2023/08/29 04:47:19;;;;;;;10.45;7.25;;;;;;;10.87;100.00;101154.19;5041046;28;20044;-53
2023/08/29 04:49:44;;;;;;;10.70;7.30;;;;;;;10.83;100.00;101150.06;5049369;28;20029;-51
2023/08/29 04:52:10;;;;;;;12.38;7.43;;;;;;;10.83;100.00;101148.25;5045763;28;20033;-51
2023/08/29 04:54:35;;;;;;;9.77;7.78;;;;;;;10.84;100.00;101149.09;5051046;28;20074;-53
2023/08/29 04:57:00;;;;;;;12.40;7.65;;;;;;;10.85;100.00;101150.81;5046092;28;20037;-52
2023/08/29 04:59:27;;;;;;;12.60;8.20;;;;;;;10.86;100.00;101160.50;5048063;28;20044;-54
2023/08/29 05:01:52;;;;;;;15.48;8.15;;;;;;;10.85;100.00;101159.63;5048563;28;20029;-52
2023/08/29 05:04:17;;;;;;;17.08;8.80;;;;;;;10.82;100.00;101154.53;5045963;28;20398;-51
2023/08/29 05:06:43;;;;;;;9.88;7.75;;;;;;;10.85;100.00;101156.13;5047013;28;20033;-52
2023/08/29 05:09:09;;;;;;;11.85;7.82;;;;;;;10.84;100.00;101152.63;5050648;28;20050;-51
2023/08/29 05:11:34;;;;;;;13.30;8.48;;;;;;;10.86;100.00;101157.84;5041554;28;20025;-51
2023/08/29 05:14:00;;;;;;;13.23;8.95;;;;;;;10.86;100.00;101158.66;5051894;28;20367;-52
2023/08/29 05:16:25;;;;;;;14.68;8.60;;;;;;;10.89;100.00;101158.44;5050743;28;20037;-51
2023/08/29 05:18:51;;;;;;;14.90;8.57;;;;;;;10.88;100.00;101156.75;5055174;28;20059;-52
2023/08/29 05:21:16;;;;;;;17.23;8.57;;;;;;;10.91;100.00;101161.00;5048011;28;20025;-52
2023/08/29 05:23:42;;;;;;;11.75;8.23;;;;;;;10.91;100.00;101153.88;5045694;28;20025;-51
2023/08/29 05:26:07;;;;;;;13.93;8.65;;;;;;;10.98;100.00;101153.44;5052591;28;20459;-51
2023/08/29 05:28:32;;;;;;;9.23;7.97;;;;;;;11.00;100.00;101152.34;5052141;28;20110;-51
2023/08/29 05:30:58;;;;;;;10.57;8.25;;;;;;;11.06;100.00;101145.75;5052937;28;20021;-51
2023/08/29 05:33:23;;;;;;;9.25;7.38;;;;;;;11.07;100.00;101161.56;5041192;28;20029;-53
2023/08/29 05:35:48;;;;;;;8.32;7.50;;;;;;;11.11;100.00;101160.38;5041596;28;20479;-52
2023/08/29 05:38:13;;;;;;;7.35;6.55;;;;;;;11.13;100.00;101162.91;5042475;28;20116;-51
2023/08/29 05:40:39;;;;;;;7.47;6.78;;;;;;;11.18;100.00;101162.59;5048629;28;20498;-51
2023/08/29 05:43:04;;;;;;;7.57;6.88;;;;;;;11.24;100.00;101167.44;5046542;28;20060;-54
2023/08/29 05:45:30;;;;;;;8.55;7.68;;;;;;;11.27;100.00;101157.44;5049946;28;20115;-50
2023/08/29 05:47:55;;;;;;;11.10;8.00;;;;;;;11.30;100.00;101154.53;5048776;28;20089;-53
2023/08/29 05:50:20;;;;;;;8.40;7.70;;;;;;;11.36;100.00;101160.34;5044611;28;20029;-51
2023/08/29 05:52:45;;;;;;;8.25;7.45;;;;;;;11.41;100.00;101163.53;5040744;28;20029;-52
2023/08/29 05:55:11;;;;;;;9.90;8.82;;;;;;;11.44;100.00;101163.28;5038648;28;20018;-55
2023/08/29 05:57:36;;;;;;;9.82;8.00;;;;;;;11.51;100.00;101169.84;5045266;28;20392;-52
2023/08/29 06:00:05;;;;;;;8.93;8.02;;;;;;;11.56;100.00;101161.53;5039861;28;20021;-54
2023/08/29 06:02:32;;;;;;;9.10;8.20;;;;;;;11.62;100.00;101159.25;5045807;28;20030;-52
2023/08/29 06:04:58;;;;;;;11.50;10.30;;;;;;;11.66;100.00;101163.38;5050292;28;20479;-54
2023/08/29 06:07:23;;;;;;;12.05;9.63;;;;;;;11.74;100.00;101167.25;5046928;28;20040;-51
2023/08/29 06:09:48;;;;;;;13.55;9.57;;;;;;;11.80;100.00;101166.78;5050613;28;20480;-52
2023/08/29 06:12:14;;;;;;;16.00;10.52;;;;;;;11.85;100.00;101164.63;5047986;28;20522;-54
2023/08/29 06:14:39;;;;;;;20.00;11.43;;;;;;;11.90;100.00;101154.47;5053684;28;20487;-53
2023/08/29 06:17:05;;;;;;;15.50;11.10;;;;;;;11.95;100.00;101152.31;5047620;28;20045;-52
2023/08/29 06:19:30;;;;;;;23.33;11.75;;;;;;;12.01;100.00;101151.84;5046160;28;20032;-54
2023/08/29 06:21:55;;;;;;;19.48;11.98;;;;;;;12.08;100.00;101152.22;5039327;28;20095;-51
2023/08/29 06:24:21;;;;;;;15.32;11.93;;;;;;;12.15;100.00;101149.91;5052353;28;20036;-52
2023/08/29 06:26:46;;;;;;;20.20;12.38;;;;;;;12.23;100.00;101157.31;5048297;28;20025;-54
2023/08/29 06:29:11;;;;;;;24.63;13.15;;;;;;;12.29;100.00;101156.81;5043126;28;20475;-51
2023/08/29 06:31:37;;;;;;;15.98;11.80;;;;;;;12.36;100.00;101152.72;5039724;28;20033;-51
2023/08/29 06:34:02;;;;;;;15.15;11.43;;;;;;;12.44;100.00;101155.63;5051266;28;20556;-49
2023/08/29 06:36:27;;;;;;;11.98;10.73;;;;;;;12.51;100.00;101158.66;5036781;28;20030;-50
2023/08/29 06:38:53;;;;;;;12.93;11.52;;;;;;;12.53;100.00;101156.69;5045582;28;20103;-50
2023/08/29 06:41:19;;;;;;;13.52;10.68;;;;;;;12.63;100.00;101154.16;5041483;28;20029;-51
2023/08/29 06:43:46;;;;;;;13.32;10.63;;;;;;;12.71;100.00;101149.88;5033174;28;20053;-53
2023/08/29 06:46:12;;;;;;;11.38;10.27;;;;;;;12.83;100.00;101157.88;5039660;28;20467;-51
2023/08/29 06:48:37;;;;;;;15.38;10.95;;;;;;;12.90;100.00;101154.56;5052726;28;20079;-51
2023/08/29 06:51:02;;;;;;;13.05;11.60;;;;;;;13.00;100.00;101154.66;5046510;28;20052;-53
2023/08/29 06:53:28;;;;;;;14.88;11.70;;;;;;;13.09;100.00;101156.59;5042597;28;20025;-50
2023/08/29 06:55:53;;;;;;;12.93;11.32;;;;;;;13.21;100.00;101161.88;5050307;28;20029;-50
2023/08/29 06:58:18;;;;;;;13.05;11.45;;;;;;;13.30;100.00;101163.78;5046751;28;20406;-51
2023/08/29 07:00:43;;;;;;;15.07;12.00;;;;;;;13.40;100.00;101155.88;5048016;28;20048;-53
2023/08/29 07:03:09;;;;;;;13.77;11.23;;;;;;;13.50;100.00;101156.81;5042004;28;20018;-50
2023/08/29 07:05:34;;;;;;;16.25;11.07;;;;;;;13.61;100.00;101159.41;5042315;28;20436;-52
2023/08/29 07:08:00;;;;;;;11.50;10.25;;;;;;;13.72;100.00;101166.50;5044713;28;20032;-52
2023/08/29 07:10:25;;;;;;;20.30;11.55;;;;;;;13.85;100.00;101168.97;5045049;28;20029;-51
2023/08/29 07:12:51;;;;;;;29.92;12.80;;;;;;;13.96;100.00;101163.56;5048273;28;20111;-52
2023/08/29 07:15:16;;;;;;;23.10;12.10;;;;;;;14.08;100.00;101169.69;5048654;28;20045;-54
2023/08/29 07:17:42;;;;;;;19.38;13.00;;;;;;;14.21;100.00;101167.63;5045420;28;20128;-54
2023/08/29 07:20:11;;;;;;;17.08;11.70;;;;;;;14.29;100.00;101166.13;5028504;28;20026;-52
2023/08/29 07:22:38;;;;;;;15.65;11.63;;;;;;;14.41;100.00;101163.22;5046104;28;20375;-52
2023/08/29 07:25:04;;;;;;;13.98;11.25;;;;;;;14.50;100.00;101163.41;5042021;28;20108;-51
2023/08/29 07:27:32;;;;;;;14.30;11.32;;;;;;;14.55;100.00;101159.31;5049195;28;20115;-51
2023/08/29 07:29:57;;;;;;;12.87;10.80;;;;;;;14.67;100.00;101169.94;5040618;28;20037;-51
2023/08/29 07:32:23;;;;;;;13.48;10.05;;;;;;;14.80;100.00;101165.19;5041242;28;20040;-52
2023/08/29 07:34:50;;;;;;;13.60;10.57;;;;;;;14.93;100.00;101168.47;5036705;28;20025;-51
2023/08/29 07:37:15;;;;;;;11.30;10.10;;;;;;;15.13;100.00;101169.34;5036916;28;20033;-51
2023/08/29 07:39:41;;;;;;;13.85;10.20;;;;;;;15.29;100.00;101174.16;5040751;28;20021;-53
2023/08/29 07:42:06;;;;;;;12.00;9.55;;;;;;;15.38;100.00;101169.78;5045765;28;20041;-52
2023/08/29 07:44:31;;;;;;;10.65;8.93;;;;;;;15.57;100.00;101166.25;5037765;28;20059;-51
2023/08/29 07:46:57;;;;;;;10.57;9.13;;;;;;;15.67;100.00;101172.44;5046208;28;20645;-51
2023/08/29 07:49:22;;;;;;;11.40;9.45;;;;;;;15.84;100.00;101175.41;5050756;28;20414;-51
2023/08/29 07:51:51;;;;;;;11.75;9.63;;;;;;;16.00;100.00;101177.47;5045545;28;20029;-53
2023/08/29 07:54:16;;;;;;;;;;;;;;;16.13;100.00;101169.97;5038212;28;20029;-51
2023/08/29 07:56:42;;;;;;;12.13;8.70;;;;;;;16.24;100.00;101169.78;5054555;28;20008;-51
2023/08/29 07:59:07;;;;;;;8.40;7.60;;;;;;;16.34;100.00;101171.59;5048205;28;20314;-54
2023/08/29 08:01:32;;;;;;;9.23;8.23;;;;;;;16.42;100.00;101169.00;5045478;28;20021;-52
2023/08/29 08:03:57;;;;;;;10.73;8.23;;;;;;;16.49;100.00;101169.25;5041961;28;20025;-51
2023/08/29 08:06:23;;;;;;;10.25;8.25;;;;;;;16.52;100.00;101166.28;5045634;28;20040;-53
2023/08/29 08:08:48;;;;;;;9.85;8.02;;;;;;;16.64;100.00;101165.09;5045569;28;20024;-51
2023/08/29 08:11:14;;;;;;;10.13;8.05;;;;;;;16.80;100.00;101170.66;5049355;28;20036;-53
2023/08/29 08:13:39;;;;;;;11.23;8.55;;;;;;;16.88;100.00;101169.94;5044235;28;20026;-52
2023/08/29 08:16:04;;;;;;;8.93;7.22;;;;;;;17.04;100.00;101168.41;5040442;28;20057;-51
2023/08/29 08:18:30;;;;;;;11.07;7.60;;;;;;;17.14;100.00;101174.56;5038719;28;20369;-52
2023/08/29 08:20:55;;;;;;;11.00;7.70;;;;;;;17.25;100.00;101170.81;5038685;28;20022;-53
2023/08/29 08:23:20;;;;;;;7.30;5.90;;;;;;;17.38;100.00;101171.25;5039074;28;20056;-52
2023/08/29 08:25:46;;;;;;;5.60;5.00;;;;;;;17.49;98.47;101171.03;5041003;28;20031;-52
2023/08/29 08:28:13;;;;;;;6.05;5.45;;;;;;;17.60;97.58;101169.94;5039632;28;20029;-52
2023/08/29 08:30:38;;;;;;;6.78;6.10;;;;;;;17.71;98.86;101168.84;5043266;28;20451;-50
2023/08/29 08:33:05;;;;;;;7.00;6.05;;;;;;;17.92;98.64;101164.00;5036687;28;20053;-51
2023/08/29 08:35:30;;;;;;;9.05;6.63;;;;;;;18.02;96.91;101171.97;5043439;28;20479;-52
2023/08/29 08:37:56;;;;;;;6.70;5.78;;;;;;;18.19;96.81;101172.91;5040254;28;20060;-52
2023/08/29 08:40:21;;;;;;;8.43;5.78;;;;;;;18.35;98.86;101171.28;5044026;28;20127;-50
2023/08/29 08:42:47;;;;;;;4.80;4.30;;;;;;;18.38;93.60;101177.19;5042663;28;20044;-53
2023/08/29 08:45:13;;;;;;;4.60;3.58;;;;;;;18.44;92.14;101181.94;5046325;28;20100;-52
2023/08/29 08:47:39;;;;;;;4.40;3.85;;;;;;;18.46;91.67;101181.78;5047015;28;20060;-51
2023/08/29 08:50:09;;;;;;;6.03;3.75;;;;;;;18.53;92.67;101174.72;5049658;28;20531;-51
2023/08/29 08:52:34;;;;;;;4.18;3.72;;;;;;;18.58;92.27;101167.00;5042665;28;20386;-52
2023/08/29 08:55:00;;;;;;;3.95;3.40;;;;;;;18.67;89.29;101170.59;5048928;28;20127;-50
2023/08/29 08:57:26;;;;;;;4.40;3.85;;;;;;;18.81;91.32;101174.50;5043523;28;20102;-52
2023/08/29 08:59:51;;;;;;;5.13;4.22;;;;;;;18.85;89.70;101171.38;5048688;28;20104;-51
2023/08/29 09:02:18;;;;;;;4.15;3.75;;;;;;;18.88;89.49;101161.25;5047050;28;20029;-53
2023/08/29 09:04:43;;;;;;;3.35;3.05;;;;;;;18.97;88.01;101171.91;5051460;28;20032;-52
2023/08/29 09:07:09;;;;;;;4.05;2.97;;;;;;;19.02;87.55;101169.53;5052823;28;20033;-52
2023/08/29 09:09:34;;;;;;;5.22;3.30;;;;;;;19.27;87.65;101164.22;5050592;28;20040;-51
2023/08/29 09:12:00;;;;;;;4.22;3.38;;;;;;;19.50;83.76;101166.22;5050494;28;20029;-51
2023/08/29 09:14:26;;;;;;;3.83;3.28;;;;;;;19.75;83.86;101167.94;5053832;28;20031;-51
2023/08/29 09:16:56;;;;;;;5.70;3.95;;;;;;;20.00;83.49;101162.50;5042603;28;20021;-55
2023/08/29 09:19:25;;;;;;;4.32;3.92;;;;;;;20.05;79.08;101170.94;5046971;28;20041;-51
2023/08/29 09:21:51;;;;;;;4.47;3.30;;;;;;;20.11;77.65;101177.47;5043767;28;20044;-52
2023/08/29 09:24:29;;;;;;;6.10;3.25;;;;;;;20.28;81.60;101184.53;5049256;28;20057;-50
2023/08/29 09:26:54;;;;;;;4.18;3.08;;;;;;;20.48;82.30;101190.34;5048344;28;20119;-52
2023/08/29 09:29:20;;;;;;;3.33;2.88;;;;;;;20.61;80.93;101181.69;5048488;28;20112;-53
2023/08/29 09:31:47;;;;;;;3.83;3.00;;;;;;;20.67;77.12;101186.41;5044097;28;20037;-50
2023/08/29 09:34:30;;;;;;;4.60;2.80;;;;;;;20.76;79.87;101179.13;5043736;28;20383;-49
2023/08/29 09:36:57;;;;;;;3.83;2.85;;;;;;;20.74;78.70;101177.63;5045309;28;20086;-53
2023/08/29 09:39:23;;;;;;;3.08;2.78;;;;;;;20.82;75.91;101178.41;5046275;28;20036;-51
2023/08/29 09:42:01;;;;;;;3.03;2.50;;;;;;;20.92;79.16;101178.19;5042853;28;20021;-53
2023/08/29 09:44:27;;;;;;;;;;;;;;;21.15;83.02;101180.94;5046669;28;20048;-54
2023/08/29 09:46:52;;;;;;;3.85;2.80;;;;;;;20.94;74.61;101178.84;5040040;28;20371;-51
2023/08/29 09:49:18;;;;;;;3.95;2.65;;;;;;;20.85;75.26;101167.28;5046571;28;20029;-53
2023/08/29 09:51:43;;;;;;;3.72;2.53;;;;;;;20.90;75.32;101166.75;5046074;28;20033;-54
2023/08/29 09:54:10;;;;;;;3.75;3.38;;;;;;;20.88;74.99;101161.53;5047009;28;20080;-51
2023/08/29 09:56:38;;;;;;;4.95;2.30;;;;;;;20.85;75.77;101152.91;5042411;28;20091;-51
2023/08/29 09:59:11;;;;;;;6.82;2.30;;;;;;;20.92;74.64;101158.44;5044539;28;20043;-54
2023/08/29 10:01:40;;;;;;;4.35;2.60;;;;;;;20.87;72.79;101161.69;5041577;28;20426;-52
2023/08/29 10:04:09;;;;;;;4.82;2.60;;;;;;;20.89;71.75;101162.34;5048684;28;20029;-54
2023/08/29 10:06:37;;;;;;;2.80;2.30;;;;;;;20.97;74.00;101147.97;5047018;28;20483;-51
2023/08/29 10:09:03;;;;;;;4.68;2.47;;;;;;;20.97;73.31;101154.19;5044323;28;20480;-51
2023/08/29 10:11:29;;;;;;;2.88;2.00;;;;;;;21.12;75.63;101151.56;5046842;28;20032;-54
2023/08/29 10:13:55;;;;;;;3.22;2.10;;;;;;;21.16;73.56;101158.28;5050557;28;20549;-52
2023/08/29 10:16:21;;;;;;;2.78;2.20;;;;;;;21.19;73.63;101154.41;5036989;28;20036;-52
2023/08/29 10:18:49;;;;;;;4.85;2.60;;;;;;;21.10;73.55;101155.47;5048757;28;20380;-51
2023/08/29 10:21:17;;;;;;;2.97;2.42;;;;;;;21.06;72.65;101146.88;5049688;28;20072;-51
2023/08/29 10:23:43;;;;;;;3.15;2.50;;;;;;;21.14;72.56;101146.00;5050593;28;20053;-54
2023/08/29 10:26:09;;;;;;;3.75;2.63;;;;;;;21.04;71.37;101154.31;5046717;28;20030;-50
2023/08/29 10:28:37;;;;;;;3.45;2.63;;;;;;;21.04;72.18;101151.63;5048909;28;20117;-51
2023/08/29 10:31:04;;;;;;;5.18;2.53;;;;;;;21.01;71.35;101151.97;5057570;28;20079;-50
2023/08/29 10:33:30;;;;;;;3.30;2.35;;;;;;;21.01;70.01;101147.41;5050041;28;20024;-50
2023/08/29 10:35:55;;;;;;;3.55;2.15;;;;;;;21.03;70.03;101139.13;5049040;28;20035;-51
2023/08/29 10:38:21;;;;;;;5.30;2.40;;;;;;;21.05;69.42;101142.53;5055096;28;20032;-51
2023/08/29 10:40:46;;;;;;;3.58;2.05;;;;;;;21.01;71.70;101136.59;5042206;28;20173;-50
2023/08/29 10:43:20;;;;;;;3.85;2.20;;;;;;;21.01;70.26;101136.59;5051662;28;20051;-52
2023/08/29 10:45:51;;;;;;;2.40;1.70;;;;;;;21.00;70.77;101139.47;5047441;28;20017;-50
2023/08/29 10:48:42;;;;;;;2.28;1.90;;;;;;;20.88;70.90;101145.31;5042766;28;20032;-51
2023/08/29 10:51:10;;;;;;;3.13;2.13;;;;;;;20.98;69.43;101136.97;5049600;28;20044;-53
2023/08/29 10:53:43;;;;;;;4.90;2.03;;;;;;;21.01;68.73;101130.38;5041291;28;20072;-52
2023/08/29 10:56:09;;;;;;;3.08;1.80;;;;;;;20.92;68.07;101126.03;5043832;28;20032;-50
2023/08/29 10:58:38;;;;;;;1.95;1.80;;;;;;;20.98;68.94;101117.22;5044839;28;20565;-50
2023/08/29 11:01:04;;;;;;;2.67;2.00;;;;;;;21.21;68.54;101118.06;5047311;28;20048;-51
2023/08/29 11:03:50;;;;;;;3.03;1.77;;;;;;;21.60;71.07;101110.84;5043821;28;20104;-51
2023/08/29 11:06:21;;;;;;;2.97;1.85;;;;;;;22.01;69.57;101121.22;5051627;28;20029;-51
2023/08/29 11:08:46;;;;;;;2.50;1.88;;;;;;;22.30;67.21;101122.25;5044939;28;20041;-50
2023/08/29 11:11:22;;;;;;;2.55;1.70;;;;;;;22.60;68.42;101117.66;5049471;28;20313;-51
2023/08/29 11:14:01;;;;;;;3.80;1.92;;;;;;;22.78;68.32;101117.22;5041892;28;20025;-53